sensor_id;sensor_type;location;lat;lon;timestamp;P1;durP1;ratioP1;P2;durP2;ratioP2
10586;SDS011;5341;47.606;7.576;2024-03-22T00:01:05;6.00;;;3.90;;
10586;SDS011;5341;47.606;7.576;2024-03-22T00:03:32;5.15;;;4.32;;
10586;SDS011;5341;47.606;7.576;2024-03-22T00:05:58;6.47;;;4.03;;
10586;SDS011;5341;47.606;7.576;2024-03-22T00:08:26;7.88;;;4.20;;
10586;SDS011;5341;47.606;7.576;2024-03-22T00:10:52;4.95;;;3.72;;
10586;SDS011;5341;47.606;7.576;2024-03-22T00:13:19;5.63;;;4.30;;
10586;SDS011;5341;47.606;7.576;2024-03-22T00:15:45;5.30;;;4.00;;
10586;SDS011;5341;47.606;7.576;2024-03-22T00:18:14;4.97;;;3.92;;
10586;SDS011;5341;47.606;7.576;2024-03-22T00:20:41;8.95;;;3.90;;
10586;SDS011;5341;47.606;7.576;2024-03-22T00:23:09;5.13;;;4.15;;
10586;SDS011;5341;47.606;7.576;2024-03-22T00:25:36;4.75;;;3.88;;
10586;SDS011;5341;47.606;7.576;2024-03-22T00:28:03;5.63;;;3.85;;
10586;SDS011;5341;47.606;7.576;2024-03-22T00:30:30;4.97;;;3.80;;
10586;SDS011;5341;47.606;7.576;2024-03-22T00:32:57;6.40;;;4.18;;
10586;SDS011;5341;47.606;7.576;2024-03-22T00:35:25;5.88;;;4.05;;
10586;SDS011;5341;47.606;7.576;2024-03-22T00:37:52;4.28;;;3.80;;
10586;SDS011;5341;47.606;7.576;2024-03-22T00:40:18;6.78;;;4.45;;
10586;SDS011;5341;47.606;7.576;2024-03-22T00:42:46;6.45;;;4.07;;
10586;SDS011;5341;47.606;7.576;2024-03-22T00:45:12;5.22;;;3.90;;
10586;SDS011;5341;47.606;7.576;2024-03-22T00:47:39;7.00;;;4.32;;
10586;SDS011;5341;47.606;7.576;2024-03-22T00:50:06;5.32;;;3.75;;
10586;SDS011;5341;47.606;7.576;2024-03-22T00:52:35;7.38;;;4.00;;
10586;SDS011;5341;47.606;7.576;2024-03-22T00:55:01;6.72;;;3.97;;
10586;SDS011;5341;47.606;7.576;2024-03-22T00:57:29;8.30;;;3.75;;
10586;SDS011;5341;47.606;7.576;2024-03-22T00:59:55;5.97;;;3.55;;
10586;SDS011;5341;47.606;7.576;2024-03-22T01:02:22;4.68;;;3.75;;
10586;SDS011;5341;47.606;7.576;2024-03-22T01:04:49;5.38;;;4.00;;
10586;SDS011;5341;47.606;7.576;2024-03-22T01:07:16;4.22;;;3.70;;
10586;SDS011;5341;47.606;7.576;2024-03-22T01:09:43;11.73;;;4.20;;
10586;SDS011;5341;47.606;7.576;2024-03-22T01:12:11;6.15;;;4.03;;
10586;SDS011;5341;47.606;7.576;2024-03-22T01:14:37;7.05;;;3.90;;
10586;SDS011;5341;47.606;7.576;2024-03-22T01:17:04;5.97;;;3.63;;
10586;SDS011;5341;47.606;7.576;2024-03-22T01:19:30;4.15;;;3.63;;
10586;SDS011;5341;47.606;7.576;2024-03-22T01:21:58;5.25;;;3.97;;
10586;SDS011;5341;47.606;7.576;2024-03-22T01:24:24;6.40;;;3.53;;
10586;SDS011;5341;47.606;7.576;2024-03-22T01:26:52;6.47;;;3.95;;
10586;SDS011;5341;47.606;7.576;2024-03-22T01:29:19;4.03;;;3.60;;
10586;SDS011;5341;47.606;7.576;2024-03-22T01:31:47;5.05;;;3.80;;
10586;SDS011;5341;47.606;7.576;2024-03-22T01:34:13;5.45;;;3.70;;
10586;SDS011;5341;47.606;7.576;2024-03-22T01:36:41;5.72;;;3.85;;
10586;SDS011;5341;47.606;7.576;2024-03-22T01:39:07;4.90;;;3.58;;
10586;SDS011;5341;47.606;7.576;2024-03-22T01:41:34;6.72;;;3.63;;
10586;SDS011;5341;47.606;7.576;2024-03-22T01:44:02;6.57;;;3.35;;
10586;SDS011;5341;47.606;7.576;2024-03-22T01:46:29;4.88;;;3.50;;
10586;SDS011;5341;47.606;7.576;2024-03-22T01:48:56;6.60;;;3.72;;
10586;SDS011;5341;47.606;7.576;2024-03-22T01:51:23;4.78;;;3.70;;
10586;SDS011;5341;47.606;7.576;2024-03-22T01:53:50;7.65;;;3.72;;
10586;SDS011;5341;47.606;7.576;2024-03-22T01:56:19;7.03;;;3.60;;
10586;SDS011;5341;47.606;7.576;2024-03-22T01:58:46;6.15;;;3.58;;
10586;SDS011;5341;47.606;7.576;2024-03-22T02:01:16;6.53;;;3.80;;
10586;SDS011;5341;47.606;7.576;2024-03-22T02:03:42;3.95;;;3.33;;
10586;SDS011;5341;47.606;7.576;2024-03-22T02:06:09;8.25;;;3.40;;
10586;SDS011;5341;47.606;7.576;2024-03-22T02:08:35;5.22;;;3.40;;
10586;SDS011;5341;47.606;7.576;2024-03-22T02:11:03;6.35;;;3.80;;
10586;SDS011;5341;47.606;7.576;2024-03-22T02:13:29;7.75;;;3.58;;
10586;SDS011;5341;47.606;7.576;2024-03-22T02:15:56;5.97;;;3.58;;
10586;SDS011;5341;47.606;7.576;2024-03-22T02:18:24;5.90;;;3.40;;
10586;SDS011;5341;47.606;7.576;2024-03-22T02:20:52;4.78;;;3.80;;
10586;SDS011;5341;47.606;7.576;2024-03-22T02:23:23;5.32;;;3.55;;
10586;SDS011;5341;47.606;7.576;2024-03-22T02:25:59;6.28;;;3.60;;
10586;SDS011;5341;47.606;7.576;2024-03-22T02:28:26;5.70;;;3.72;;
10586;SDS011;5341;47.606;7.576;2024-03-22T02:30:53;7.43;;;3.35;;
10586;SDS011;5341;47.606;7.576;2024-03-22T02:33:19;3.50;;;3.03;;
10586;SDS011;5341;47.606;7.576;2024-03-22T02:35:47;6.03;;;3.75;;
10586;SDS011;5341;47.606;7.576;2024-03-22T02:38:13;6.68;;;3.58;;
10586;SDS011;5341;47.606;7.576;2024-03-22T02:40:42;7.40;;;3.83;;
10586;SDS011;5341;47.606;7.576;2024-03-22T02:43:09;4.78;;;3.58;;
10586;SDS011;5341;47.606;7.576;2024-03-22T02:45:36;7.78;;;3.90;;
10586;SDS011;5341;47.606;7.576;2024-03-22T02:48:03;4.95;;;3.88;;
10586;SDS011;5341;47.606;7.576;2024-03-22T02:50:32;8.38;;;3.78;;
10586;SDS011;5341;47.606;7.576;2024-03-22T02:52:58;5.65;;;3.65;;
10586;SDS011;5341;47.606;7.576;2024-03-22T02:55:26;7.00;;;3.63;;
10586;SDS011;5341;47.606;7.576;2024-03-22T02:57:55;4.57;;;3.92;;
10586;SDS011;5341;47.606;7.576;2024-03-22T03:00:23;5.75;;;3.85;;
10586;SDS011;5341;47.606;7.576;2024-03-22T03:02:49;5.47;;;3.90;;
10586;SDS011;5341;47.606;7.576;2024-03-22T03:05:17;7.30;;;3.78;;
10586;SDS011;5341;47.606;7.576;2024-03-22T03:07:43;10.07;;;3.90;;
10586;SDS011;5341;47.606;7.576;2024-03-22T03:10:12;4.88;;;3.63;;
10586;SDS011;5341;47.606;7.576;2024-03-22T03:12:38;3.95;;;3.17;;
10586;SDS011;5341;47.606;7.576;2024-03-22T03:15:08;5.10;;;3.50;;
10586;SDS011;5341;47.606;7.576;2024-03-22T03:17:34;5.63;;;3.85;;
10586;SDS011;5341;47.606;7.576;2024-03-22T03:20:01;4.53;;;3.45;;
10586;SDS011;5341;47.606;7.576;2024-03-22T03:22:30;4.57;;;3.67;;
10586;SDS011;5341;47.606;7.576;2024-03-22T03:24:57;7.47;;;3.58;;
10586;SDS011;5341;47.606;7.576;2024-03-22T03:27:24;4.88;;;3.45;;
10586;SDS011;5341;47.606;7.576;2024-03-22T03:29:51;5.63;;;3.20;;
10586;SDS011;5341;47.606;7.576;2024-03-22T03:32:19;4.50;;;3.33;;
10586;SDS011;5341;47.606;7.576;2024-03-22T03:34:46;4.95;;;3.17;;
10586;SDS011;5341;47.606;7.576;2024-03-22T03:37:12;5.05;;;3.80;;
10586;SDS011;5341;47.606;7.576;2024-03-22T03:39:39;3.83;;;3.30;;
10586;SDS011;5341;47.606;7.576;2024-03-22T03:42:06;4.25;;;3.60;;
10586;SDS011;5341;47.606;7.576;2024-03-22T03:44:33;4.07;;;3.35;;
10586;SDS011;5341;47.606;7.576;2024-03-22T03:47:00;3.90;;;3.13;;
10586;SDS011;5341;47.606;7.576;2024-03-22T03:49:29;4.32;;;3.00;;
10586;SDS011;5341;47.606;7.576;2024-03-22T03:51:55;4.55;;;3.35;;
10586;SDS011;5341;47.606;7.576;2024-03-22T03:54:23;4.15;;;3.10;;
10586;SDS011;5341;47.606;7.576;2024-03-22T03:56:49;3.67;;;3.15;;
10586;SDS011;5341;47.606;7.576;2024-03-22T03:59:16;4.30;;;2.90;;
10586;SDS011;5341;47.606;7.576;2024-03-22T04:01:43;4.38;;;3.10;;
10586;SDS011;5341;47.606;7.576;2024-03-22T04:04:10;4.68;;;3.13;;
10586;SDS011;5341;47.606;7.576;2024-03-22T04:06:38;3.67;;;2.90;;
10586;SDS011;5341;47.606;7.576;2024-03-22T04:09:05;5.07;;;3.10;;
10586;SDS011;5341;47.606;7.576;2024-03-22T04:11:31;5.15;;;3.42;;
10586;SDS011;5341;47.606;7.576;2024-03-22T04:13:59;5.30;;;3.05;;
10586;SDS011;5341;47.606;7.576;2024-03-22T04:16:25;3.00;;;2.70;;
10586;SDS011;5341;47.606;7.576;2024-03-22T04:18:52;5.30;;;3.05;;
10586;SDS011;5341;47.606;7.576;2024-03-22T04:21:19;5.07;;;3.10;;
10586;SDS011;5341;47.606;7.576;2024-03-22T04:23:47;5.15;;;2.97;;
10586;SDS011;5341;47.606;7.576;2024-03-22T04:26:14;4.80;;;2.85;;
10586;SDS011;5341;47.606;7.576;2024-03-22T04:28:42;3.45;;;2.80;;
10586;SDS011;5341;47.606;7.576;2024-03-22T04:31:08;3.85;;;2.88;;
10586;SDS011;5341;47.606;7.576;2024-03-22T04:33:36;3.65;;;2.80;;
10586;SDS011;5341;47.606;7.576;2024-03-22T04:36:03;3.67;;;2.88;;
10586;SDS011;5341;47.606;7.576;2024-03-22T04:38:31;3.03;;;2.72;;
10586;SDS011;5341;47.606;7.576;2024-03-22T04:41:00;7.72;;;2.90;;
10586;SDS011;5341;47.606;7.576;2024-03-22T04:43:27;4.22;;;2.83;;
10586;SDS011;5341;47.606;7.576;2024-03-22T04:45:55;7.22;;;3.40;;
10586;SDS011;5341;47.606;7.576;2024-03-22T04:48:22;4.90;;;3.05;;
10586;SDS011;5341;47.606;7.576;2024-03-22T04:50:49;5.75;;;3.40;;
10586;SDS011;5341;47.606;7.576;2024-03-22T04:53:18;3.97;;;3.33;;
10586;SDS011;5341;47.606;7.576;2024-03-22T04:55:46;4.55;;;3.20;;
10586;SDS011;5341;47.606;7.576;2024-03-22T04:58:15;5.85;;;3.10;;
10586;SDS011;5341;47.606;7.576;2024-03-22T05:00:44;5.03;;;3.53;;
10586;SDS011;5341;47.606;7.576;2024-03-22T05:03:11;5.07;;;3.30;;
10586;SDS011;5341;47.606;7.576;2024-03-22T05:05:38;7.95;;;3.85;;
10586;SDS011;5341;47.606;7.576;2024-03-22T05:08:06;4.95;;;3.65;;
10586;SDS011;5341;47.606;7.576;2024-03-22T05:10:34;6.28;;;3.90;;
10586;SDS011;5341;47.606;7.576;2024-03-22T05:13:00;5.30;;;3.70;;
10586;SDS011;5341;47.606;7.576;2024-03-22T05:15:29;5.43;;;3.65;;
10586;SDS011;5341;47.606;7.576;2024-03-22T05:17:56;6.05;;;3.95;;
10586;SDS011;5341;47.606;7.576;2024-03-22T05:20:24;8.05;;;4.22;;
10586;SDS011;5341;47.606;7.576;2024-03-22T05:22:50;5.68;;;3.78;;
10586;SDS011;5341;47.606;7.576;2024-03-22T05:25:18;5.70;;;4.15;;
10586;SDS011;5341;47.606;7.576;2024-03-22T05:27:44;5.53;;;3.88;;
10586;SDS011;5341;47.606;7.576;2024-03-22T05:30:12;4.88;;;4.20;;
10586;SDS011;5341;47.606;7.576;2024-03-22T05:32:40;7.85;;;4.18;;
10586;SDS011;5341;47.606;7.576;2024-03-22T05:35:08;5.72;;;3.95;;
10586;SDS011;5341;47.606;7.576;2024-03-22T05:37:34;6.22;;;4.30;;
10586;SDS011;5341;47.606;7.576;2024-03-22T05:40:01;6.30;;;3.90;;
10586;SDS011;5341;47.606;7.576;2024-03-22T05:42:29;6.80;;;3.97;;
10586;SDS011;5341;47.606;7.576;2024-03-22T05:44:56;6.05;;;3.70;;
10586;SDS011;5341;47.606;7.576;2024-03-22T05:47:23;5.75;;;3.92;;
10586;SDS011;5341;47.606;7.576;2024-03-22T05:49:52;5.65;;;3.85;;
10586;SDS011;5341;47.606;7.576;2024-03-22T05:52:18;5.93;;;3.78;;
10586;SDS011;5341;47.606;7.576;2024-03-22T05:54:46;6.80;;;4.10;;
10586;SDS011;5341;47.606;7.576;2024-03-22T05:57:12;4.80;;;3.78;;
10586;SDS011;5341;47.606;7.576;2024-03-22T05:59:39;8.00;;;4.25;;
10586;SDS011;5341;47.606;7.576;2024-03-22T06:02:06;6.75;;;3.83;;
10586;SDS011;5341;47.606;7.576;2024-03-22T06:04:33;6.13;;;3.83;;
10586;SDS011;5341;47.606;7.576;2024-03-22T06:07:01;6.53;;;4.15;;
10586;SDS011;5341;47.606;7.576;2024-03-22T06:09:30;8.77;;;3.97;;
10586;SDS011;5341;47.606;7.576;2024-03-22T06:12:03;6.30;;;3.85;;
10586;SDS011;5341;47.606;7.576;2024-03-22T06:14:31;4.65;;;3.60;;
10586;SDS011;5341;47.606;7.576;2024-03-22T06:16:57;4.88;;;3.80;;
10586;SDS011;5341;47.606;7.576;2024-03-22T06:19:25;4.38;;;3.58;;
10586;SDS011;5341;47.606;7.576;2024-03-22T06:21:51;6.93;;;3.72;;
10586;SDS011;5341;47.606;7.576;2024-03-22T06:24:20;6.10;;;3.70;;
10586;SDS011;5341;47.606;7.576;2024-03-22T06:26:46;4.95;;;3.50;;
10586;SDS011;5341;47.606;7.576;2024-03-22T06:29:14;4.93;;;3.40;;
10586;SDS011;5341;47.606;7.576;2024-03-22T06:31:41;4.10;;;3.67;;
10586;SDS011;5341;47.606;7.576;2024-03-22T06:34:09;5.05;;;3.97;;
10586;SDS011;5341;47.606;7.576;2024-03-22T06:36:35;6.75;;;4.20;;
10586;SDS011;5341;47.606;7.576;2024-03-22T06:39:02;5.60;;;3.47;;
10586;SDS011;5341;47.606;7.576;2024-03-22T06:41:34;5.18;;;3.70;;
10586;SDS011;5341;47.606;7.576;2024-03-22T06:44:01;4.50;;;3.45;;
10586;SDS011;5341;47.606;7.576;2024-03-22T06:46:27;4.68;;;3.90;;
10586;SDS011;5341;47.606;7.576;2024-03-22T06:48:55;4.43;;;3.63;;
10586;SDS011;5341;47.606;7.576;2024-03-22T06:51:21;5.60;;;3.53;;
10586;SDS011;5341;47.606;7.576;2024-03-22T06:53:48;7.05;;;3.83;;
10586;SDS011;5341;47.606;7.576;2024-03-22T06:56:14;8.57;;;3.50;;
10586;SDS011;5341;47.606;7.576;2024-03-22T06:58:44;4.32;;;3.38;;
10586;SDS011;5341;47.606;7.576;2024-03-22T07:01:10;6.90;;;3.50;;
10586;SDS011;5341;47.606;7.576;2024-03-22T07:03:37;5.53;;;3.78;;
10586;SDS011;5341;47.606;7.576;2024-03-22T07:06:03;5.97;;;3.88;;
10586;SDS011;5341;47.606;7.576;2024-03-22T07:08:33;10.68;;;4.13;;
10586;SDS011;5341;47.606;7.576;2024-03-22T07:10:59;5.43;;;3.70;;
10586;SDS011;5341;47.606;7.576;2024-03-22T07:13:27;5.28;;;3.67;;
10586;SDS011;5341;47.606;7.576;2024-03-22T07:15:55;7.75;;;4.05;;
10586;SDS011;5341;47.606;7.576;2024-03-22T07:18:23;7.03;;;3.90;;
10586;SDS011;5341;47.606;7.576;2024-03-22T07:20:49;6.72;;;3.90;;
10586;SDS011;5341;47.606;7.576;2024-03-22T07:23:16;7.68;;;4.10;;
10586;SDS011;5341;47.606;7.576;2024-03-22T07:25:42;7.47;;;4.00;;
10586;SDS011;5341;47.606;7.576;2024-03-22T07:28:11;5.65;;;3.90;;
10586;SDS011;5341;47.606;7.576;2024-03-22T07:30:37;7.15;;;3.88;;
10586;SDS011;5341;47.606;7.576;2024-03-22T07:33:06;5.68;;;4.13;;
10586;SDS011;5341;47.606;7.576;2024-03-22T07:35:34;6.97;;;3.97;;
10586;SDS011;5341;47.606;7.576;2024-03-22T07:38:01;7.70;;;4.45;;
10586;SDS011;5341;47.606;7.576;2024-03-22T07:40:28;6.40;;;4.00;;
10586;SDS011;5341;47.606;7.576;2024-03-22T07:42:55;7.82;;;4.10;;
10586;SDS011;5341;47.606;7.576;2024-03-22T07:45:21;7.85;;;4.20;;
10586;SDS011;5341;47.606;7.576;2024-03-22T07:47:48;6.53;;;4.18;;
10586;SDS011;5341;47.606;7.576;2024-03-22T07:50:16;7.25;;;4.40;;
10586;SDS011;5341;47.606;7.576;2024-03-22T07:52:44;7.30;;;4.35;;
10586;SDS011;5341;47.606;7.576;2024-03-22T07:55:10;6.93;;;4.40;;
10586;SDS011;5341;47.606;7.576;2024-03-22T07:57:37;10.65;;;5.00;;
10586;SDS011;5341;47.606;7.576;2024-03-22T08:00:04;8.73;;;4.72;;
10586;SDS011;5341;47.606;7.576;2024-03-22T08:02:37;7.53;;;4.78;;
10586;SDS011;5341;47.606;7.576;2024-03-22T08:05:03;7.45;;;4.68;;
10586;SDS011;5341;47.606;7.576;2024-03-22T08:07:33;7.22;;;4.50;;
10586;SDS011;5341;47.606;7.576;2024-03-22T08:09:59;8.00;;;4.57;;
10586;SDS011;5341;47.606;7.576;2024-03-22T08:12:27;5.93;;;4.35;;
10586;SDS011;5341;47.606;7.576;2024-03-22T08:14:53;5.47;;;4.03;;
10586;SDS011;5341;47.606;7.576;2024-03-22T08:17:21;12.65;;;4.75;;
10586;SDS011;5341;47.606;7.576;2024-03-22T08:19:48;6.03;;;3.95;;
10586;SDS011;5341;47.606;7.576;2024-03-22T08:22:15;7.72;;;4.07;;
10586;SDS011;5341;47.606;7.576;2024-03-22T08:24:43;7.82;;;4.57;;
10586;SDS011;5341;47.606;7.576;2024-03-22T08:27:10;6.50;;;4.10;;
10586;SDS011;5341;47.606;7.576;2024-03-22T08:30:52;7.63;;;4.10;;
10586;SDS011;5341;47.606;7.576;2024-03-22T08:33:20;6.88;;;4.35;;
10586;SDS011;5341;47.606;7.576;2024-03-22T08:35:46;7.72;;;4.22;;
10586;SDS011;5341;47.606;7.576;2024-03-22T08:38:14;6.35;;;4.22;;
10586;SDS011;5341;47.606;7.576;2024-03-22T08:40:40;7.45;;;4.18;;
10586;SDS011;5341;47.606;7.576;2024-03-22T08:43:08;6.40;;;4.10;;
10586;SDS011;5341;47.606;7.576;2024-03-22T08:45:34;7.18;;;4.18;;
10586;SDS011;5341;47.606;7.576;2024-03-22T08:48:03;7.93;;;4.18;;
10586;SDS011;5341;47.606;7.576;2024-03-22T08:50:30;5.15;;;4.10;;
10586;SDS011;5341;47.606;7.576;2024-03-22T08:52:58;7.75;;;3.92;;
10586;SDS011;5341;47.606;7.576;2024-03-22T08:55:24;8.65;;;3.92;;
10586;SDS011;5341;47.606;7.576;2024-03-22T08:57:51;5.45;;;3.58;;
10586;SDS011;5341;47.606;7.576;2024-03-22T09:00:17;4.90;;;3.30;;
10586;SDS011;5341;47.606;7.576;2024-03-22T09:02:45;7.22;;;3.30;;
10586;SDS011;5341;47.606;7.576;2024-03-22T09:05:14;5.78;;;3.47;;
10586;SDS011;5341;47.606;7.576;2024-03-22T09:07:42;8.98;;;3.67;;
10586;SDS011;5341;47.606;7.576;2024-03-22T09:10:08;6.43;;;3.67;;
10586;SDS011;5341;47.606;7.576;2024-03-22T09:12:36;5.97;;;3.40;;
10586;SDS011;5341;47.606;7.576;2024-03-22T09:15:02;4.68;;;3.10;;
10586;SDS011;5341;47.606;7.576;2024-03-22T09:17:30;5.07;;;3.22;;
10586;SDS011;5341;47.606;7.576;2024-03-22T09:19:56;6.95;;;3.55;;
10586;SDS011;5341;47.606;7.576;2024-03-22T09:22:25;4.78;;;2.88;;
10586;SDS011;5341;47.606;7.576;2024-03-22T09:24:51;5.07;;;3.22;;
10586;SDS011;5341;47.606;7.576;2024-03-22T09:27:19;4.03;;;3.17;;
10586;SDS011;5341;47.606;7.576;2024-03-22T09:29:45;7.00;;;3.42;;
10586;SDS011;5341;47.606;7.576;2024-03-22T09:32:15;6.90;;;3.30;;
10586;SDS011;5341;47.606;7.576;2024-03-22T09:34:41;6.40;;;3.10;;
10586;SDS011;5341;47.606;7.576;2024-03-22T09:37:09;4.32;;;2.70;;
10586;SDS011;5341;47.606;7.576;2024-03-22T09:39:36;7.70;;;3.30;;
10586;SDS011;5341;47.606;7.576;2024-03-22T09:42:04;5.85;;;3.15;;
10586;SDS011;5341;47.606;7.576;2024-03-22T09:44:32;4.97;;;3.03;;
10586;SDS011;5341;47.606;7.576;2024-03-22T09:47:00;4.55;;;3.05;;
10586;SDS011;5341;47.606;7.576;2024-03-22T09:49:26;6.32;;;3.30;;
10586;SDS011;5341;47.606;7.576;2024-03-22T09:51:54;4.07;;;2.85;;
10586;SDS011;5341;47.606;7.576;2024-03-22T09:54:22;8.98;;;3.53;;
10586;SDS011;5341;47.606;7.576;2024-03-22T09:56:52;4.07;;;2.83;;
10586;SDS011;5341;47.606;7.576;2024-03-22T09:59:19;6.80;;;3.67;;
10586;SDS011;5341;47.606;7.576;2024-03-22T10:01:47;3.95;;;3.00;;
10586;SDS011;5341;47.606;7.576;2024-03-22T10:04:14;5.38;;;3.10;;
10586;SDS011;5341;47.606;7.576;2024-03-22T10:06:42;5.63;;;2.83;;
10586;SDS011;5341;47.606;7.576;2024-03-22T10:09:08;4.30;;;2.60;;
10586;SDS011;5341;47.606;7.576;2024-03-22T10:11:36;4.10;;;2.78;;
10586;SDS011;5341;47.606;7.576;2024-03-22T10:14:04;4.20;;;2.58;;
10586;SDS011;5341;47.606;7.576;2024-03-22T10:16:33;6.15;;;2.72;;
10586;SDS011;5341;47.606;7.576;2024-03-22T10:19:00;4.18;;;2.63;;
10586;SDS011;5341;47.606;7.576;2024-03-22T10:21:27;4.28;;;2.40;;
10586;SDS011;5341;47.606;7.576;2024-03-22T10:23:54;4.50;;;2.58;;
10586;SDS011;5341;47.606;7.576;2024-03-22T10:26:22;5.88;;;2.70;;
10586;SDS011;5341;47.606;7.576;2024-03-22T10:28:48;3.75;;;2.53;;
10586;SDS011;5341;47.606;7.576;2024-03-22T10:31:17;2.60;;;2.30;;
10586;SDS011;5341;47.606;7.576;2024-03-22T10:33:46;3.95;;;2.42;;
10586;SDS011;5341;47.606;7.576;2024-03-22T10:36:14;5.93;;;2.13;;
10586;SDS011;5341;47.606;7.576;2024-03-22T10:38:44;5.25;;;2.08;;
10586;SDS011;5341;47.606;7.576;2024-03-22T10:41:11;5.60;;;2.13;;
10586;SDS011;5341;47.606;7.576;2024-03-22T10:43:38;3.65;;;2.10;;
10586;SDS011;5341;47.606;7.576;2024-03-22T10:46:05;5.88;;;2.58;;
10586;SDS011;5341;47.606;7.576;2024-03-22T10:48:35;2.63;;;1.90;;
10586;SDS011;5341;47.606;7.576;2024-03-22T10:51:05;4.90;;;2.15;;
10586;SDS011;5341;47.606;7.576;2024-03-22T10:53:32;2.42;;;1.80;;
10586;SDS011;5341;47.606;7.576;2024-03-22T10:56:01;4.63;;;1.95;;
10586;SDS011;5341;47.606;7.576;2024-03-22T10:58:29;2.15;;;1.80;;
10586;SDS011;5341;47.606;7.576;2024-03-22T11:00:58;2.58;;;1.42;;
10586;SDS011;5341;47.606;7.576;2024-03-22T11:03:24;3.78;;;1.65;;
10586;SDS011;5341;47.606;7.576;2024-03-22T11:05:55;2.28;;;1.45;;
10586;SDS011;5341;47.606;7.576;2024-03-22T11:08:23;6.03;;;1.67;;
10586;SDS011;5341;47.606;7.576;2024-03-22T11:10:51;2.50;;;1.70;;
10586;SDS011;5341;47.606;7.576;2024-03-22T11:13:20;3.28;;;1.60;;
10586;SDS011;5341;47.606;7.576;2024-03-22T11:15:48;2.20;;;1.60;;
10586;SDS011;5341;47.606;7.576;2024-03-22T11:18:15;3.03;;;1.52;;
10586;SDS011;5341;47.606;7.576;2024-03-22T11:20:43;2.55;;;1.50;;
10586;SDS011;5341;47.606;7.576;2024-03-22T11:23:13;1.60;;;1.27;;
10586;SDS011;5341;47.606;7.576;2024-03-22T11:25:40;2.00;;;1.48;;
10586;SDS011;5341;47.606;7.576;2024-03-22T11:28:07;1.50;;;1.33;;
10586;SDS011;5341;47.606;7.576;2024-03-22T11:30:35;1.63;;;1.50;;
10586;SDS011;5341;47.606;7.576;2024-03-22T11:33:02;4.78;;;1.50;;
10586;SDS011;5341;47.606;7.576;2024-03-22T11:35:31;2.15;;;1.35;;
10586;SDS011;5341;47.606;7.576;2024-03-22T11:37:57;2.47;;;1.63;;
10586;SDS011;5341;47.606;7.576;2024-03-22T11:40:31;3.17;;;1.40;;
10586;SDS011;5341;47.606;7.576;2024-03-22T11:42:59;5.10;;;1.45;;
10586;SDS011;5341;47.606;7.576;2024-03-22T11:45:28;2.47;;;1.45;;
10586;SDS011;5341;47.606;7.576;2024-03-22T11:47:57;2.35;;;1.30;;
10586;SDS011;5341;47.606;7.576;2024-03-22T11:50:28;3.10;;;1.70;;
10586;SDS011;5341;47.606;7.576;2024-03-22T11:52:54;2.03;;;1.30;;
10586;SDS011;5341;47.606;7.576;2024-03-22T11:55:26;1.63;;;1.20;;
10586;SDS011;5341;47.606;7.576;2024-03-22T11:57:56;4.35;;;1.50;;
10586;SDS011;5341;47.606;7.576;2024-03-22T12:00:24;1.40;;;1.30;;
10586;SDS011;5341;47.606;7.576;2024-03-22T12:02:52;1.55;;;1.30;;
10586;SDS011;5341;47.606;7.576;2024-03-22T12:05:20;3.15;;;1.48;;
10586;SDS011;5341;47.606;7.576;2024-03-22T12:07:47;1.60;;;1.40;;
10586;SDS011;5341;47.606;7.576;2024-03-22T12:10:15;2.95;;;1.40;;
10586;SDS011;5341;47.606;7.576;2024-03-22T12:12:41;2.05;;;1.42;;
10586;SDS011;5341;47.606;7.576;2024-03-22T12:15:10;3.70;;;1.80;;
10586;SDS011;5341;47.606;7.576;2024-03-22T12:17:36;1.58;;;1.30;;
10586;SDS011;5341;47.606;7.576;2024-03-22T12:20:05;1.60;;;1.40;;
10586;SDS011;5341;47.606;7.576;2024-03-22T12:22:33;2.10;;;1.45;;
10586;SDS011;5341;47.606;7.576;2024-03-22T12:25:01;2.25;;;1.27;;
10586;SDS011;5341;47.606;7.576;2024-03-22T12:27:27;3.15;;;1.40;;
10586;SDS011;5341;47.606;7.576;2024-03-22T12:29:54;1.75;;;1.35;;
10586;SDS011;5341;47.606;7.576;2024-03-22T12:32:22;1.63;;;1.30;;
10586;SDS011;5341;47.606;7.576;2024-03-22T12:34:49;1.92;;;1.40;;
10586;SDS011;5341;47.606;7.576;2024-03-22T12:37:16;3.67;;;1.50;;
10586;SDS011;5341;47.606;7.576;2024-03-22T12:39:43;1.33;;;1.20;;
10586;SDS011;5341;47.606;7.576;2024-03-22T12:42:10;1.65;;;1.20;;
10586;SDS011;5341;47.606;7.576;2024-03-22T12:44:38;1.92;;;1.25;;
10586;SDS011;5341;47.606;7.576;2024-03-22T12:47:04;4.68;;;1.42;;
10586;SDS011;5341;47.606;7.576;2024-03-22T12:49:34;1.55;;;1.02;;
10586;SDS011;5341;47.606;7.576;2024-03-22T12:52:00;5.72;;;1.42;;
10586;SDS011;5341;47.606;7.576;2024-03-22T12:54:29;3.05;;;1.40;;
10586;SDS011;5341;47.606;7.576;2024-03-22T12:56:56;5.63;;;1.60;;
10586;SDS011;5341;47.606;7.576;2024-03-22T12:59:23;1.95;;;1.40;;
10586;SDS011;5341;47.606;7.576;2024-03-22T13:01:50;3.70;;;1.45;;
10586;SDS011;5341;47.606;7.576;2024-03-22T13:04:19;1.73;;;1.20;;
10586;SDS011;5341;47.606;7.576;2024-03-22T13:06:47;1.40;;;1.10;;
10586;SDS011;5341;47.606;7.576;2024-03-22T13:09:15;3.80;;;1.30;;
10586;SDS011;5341;47.606;7.576;2024-03-22T13:11:45;2.45;;;1.30;;
10586;SDS011;5341;47.606;7.576;2024-03-22T13:14:12;2.63;;;1.40;;
10586;SDS011;5341;47.606;7.576;2024-03-22T13:16:39;2.38;;;1.20;;
10586;SDS011;5341;47.606;7.576;2024-03-22T13:19:07;2.97;;;1.33;;
10586;SDS011;5341;47.606;7.576;2024-03-22T13:21:38;2.97;;;1.48;;
10586;SDS011;5341;47.606;7.576;2024-03-22T13:24:06;1.45;;;1.15;;
10586;SDS011;5341;47.606;7.576;2024-03-22T13:26:33;2.35;;;1.35;;
10586;SDS011;5341;47.606;7.576;2024-03-22T13:29:00;4.60;;;1.40;;
10586;SDS011;5341;47.606;7.576;2024-03-22T13:31:27;2.63;;;1.42;;
10586;SDS011;5341;47.606;7.576;2024-03-22T13:33:54;1.35;;;1.20;;
10586;SDS011;5341;47.606;7.576;2024-03-22T13:36:20;2.00;;;1.50;;
10586;SDS011;5341;47.606;7.576;2024-03-22T13:38:48;1.52;;;1.40;;
10586;SDS011;5341;47.606;7.576;2024-03-22T13:41:15;3.10;;;1.50;;
10586;SDS011;5341;47.606;7.576;2024-03-22T13:43:43;3.35;;;1.67;;
10586;SDS011;5341;47.606;7.576;2024-03-22T13:46:10;3.72;;;1.50;;
10586;SDS011;5341;47.606;7.576;2024-03-22T13:48:40;2.42;;;1.60;;
10586;SDS011;5341;47.606;7.576;2024-03-22T13:51:06;1.85;;;1.45;;
10586;SDS011;5341;47.606;7.576;2024-03-22T13:53:33;2.03;;;1.30;;
10586;SDS011;5341;47.606;7.576;2024-03-22T13:56:00;2.85;;;1.42;;
10586;SDS011;5341;47.606;7.576;2024-03-22T13:58:30;3.10;;;1.60;;
10586;SDS011;5341;47.606;7.576;2024-03-22T14:00:56;3.03;;;1.60;;
10586;SDS011;5341;47.606;7.576;2024-03-22T14:03:23;3.00;;;1.58;;
10586;SDS011;5341;47.606;7.576;2024-03-22T14:05:50;1.85;;;1.50;;
10586;SDS011;5341;47.606;7.576;2024-03-22T14:08:17;2.60;;;1.40;;
10586;SDS011;5341;47.606;7.576;2024-03-22T14:10:43;1.95;;;1.50;;
10586;SDS011;5341;47.606;7.576;2024-03-22T14:13:11;3.47;;;1.40;;
10586;SDS011;5341;47.606;7.576;2024-03-22T14:15:39;1.70;;;1.30;;
10586;SDS011;5341;47.606;7.576;2024-03-22T14:18:06;2.20;;;1.45;;
10586;SDS011;5341;47.606;7.576;2024-03-22T14:20:33;4.05;;;1.60;;
10586;SDS011;5341;47.606;7.576;2024-03-22T14:23:00;2.20;;;1.30;;
10586;SDS011;5341;47.606;7.576;2024-03-22T14:25:26;3.53;;;1.60;;
10586;SDS011;5341;47.606;7.576;2024-03-22T14:27:54;2.45;;;1.48;;
10586;SDS011;5341;47.606;7.576;2024-03-22T14:30:21;2.38;;;1.50;;
10586;SDS011;5341;47.606;7.576;2024-03-22T14:32:52;1.95;;;1.50;;
10586;SDS011;5341;47.606;7.576;2024-03-22T14:35:18;2.28;;;1.42;;
10586;SDS011;5341;47.606;7.576;2024-03-22T14:37:47;2.92;;;1.50;;
10586;SDS011;5341;47.606;7.576;2024-03-22T14:40:13;2.63;;;1.40;;
10586;SDS011;5341;47.606;7.576;2024-03-22T14:42:42;2.10;;;1.50;;
10586;SDS011;5341;47.606;7.576;2024-03-22T14:45:09;1.73;;;1.40;;
10586;SDS011;5341;47.606;7.576;2024-03-22T14:47:37;3.50;;;1.45;;
10586;SDS011;5341;47.606;7.576;2024-03-22T14:50:05;2.45;;;1.60;;
10586;SDS011;5341;47.606;7.576;2024-03-22T14:52:33;1.77;;;1.42;;
10586;SDS011;5341;47.606;7.576;2024-03-22T14:54:59;2.33;;;1.65;;
10586;SDS011;5341;47.606;7.576;2024-03-22T14:57:26;3.80;;;1.60;;
10586;SDS011;5341;47.606;7.576;2024-03-22T14:59:53;3.03;;;1.60;;
10586;SDS011;5341;47.606;7.576;2024-03-22T15:02:20;3.90;;;1.52;;